Time;durP1;ratioP1;P1;durP2;ratioP2;P2;SDS_P1;SDS_P2;PMS_P1;PMS_P2;Temp;Humidity;BMP_temperature;BMP_pressure;BME280_temperature;BME280_humidity;BME280_pressure;Samples;Min_cycle;Max_cycle;Signal;HPM_P1;HPM_P2
2023/09/30 00:01:41;;;;;;;3.00;1.73;;;;;;;19.10;59.55;102457.94;5035590;28;20029;-55
2023/09/30 00:04:07;;;;;;;2.58;1.55;;;;;;;19.08;59.95;102444.53;5035393;28;20044;-55
2023/09/30 00:06:32;;;;;;;3.72;1.80;;;;;;;19.09;59.46;102450.78;5036694;28;20038;-56
2023/09/30 00:08:58;;;;;;;3.10;2.03;;;;;;;19.08;59.45;102460.72;5037085;28;20033;-55
2023/09/30 00:11:23;;;;;;;2.20;1.73;;;;;;;19.07;59.62;102456.28;5035094;28;20040;-55
2023/09/30 00:13:49;;;;;;;4.00;1.73;;;;;;;19.08;59.65;102457.19;5036259;28;20037;-55
2023/09/30 00:16:17;;;;;;;2.67;1.95;;;;;;;19.08;59.62;102459.88;5035955;28;20072;-55
2023/09/30 00:18:42;;;;;;;2.38;1.67;;;;;;;19.06;59.39;102462.69;5036266;28;20032;-55
2023/09/30 00:21:08;;;;;;;4.07;2.05;;;;;;;19.06;59.38;102457.28;5035858;28;20104;-55
2023/09/30 00:23:33;;;;;;;2.60;1.70;;;;;;;19.06;59.66;102462.69;5035846;28;20041;-55
2023/09/30 00:26:00;;;;;;;1.45;1.27;;;;;;;19.06;59.55;102464.53;5036080;28;20096;-55
2023/09/30 00:28:25;;;;;;;2.95;1.80;;;;;;;19.05;59.66;102458.25;5035463;28;20029;-55
2023/09/30 00:30:50;;;;;;;2.80;1.83;;;;;;;19.04;59.45;102453.84;5035364;28;20117;-55
2023/09/30 00:33:16;;;;;;;3.15;1.92;;;;;;;19.05;59.60;102447.44;5035488;28;20472;-55
2023/09/30 00:35:41;;;;;;;2.13;1.50;;;;;;;19.04;59.36;102445.75;5034890;28;20052;-55
2023/09/30 00:38:06;;;;;;;2.50;1.65;;;;;;;19.05;59.35;102462.78;5035073;28;20083;-56
2023/09/30 00:40:32;;;;;;;2.80;1.83;;;;;;;19.05;59.46;102470.91;5035364;28;20029;-55
2023/09/30 00:42:58;;;;;;;2.72;1.80;;;;;;;19.04;59.27;102475.44;5035228;28;20056;-55
2023/09/30 00:45:23;;;;;;;2.58;1.48;;;;;;;19.03;59.46;102476.41;5035688;28;20112;-55
2023/09/30 00:47:49;;;;;;;2.17;1.85;;;;;;;19.03;59.25;102476.41;5036635;28;20539;-55
2023/09/30 00:50:15;;;;;;;3.33;1.90;;;;;;;19.03;59.68;102472.84;5036454;28;20033;-55
2023/09/30 00:52:40;;;;;;;5.20;1.90;;;;;;;19.02;59.28;102465.72;5038306;28;20501;-55
2023/09/30 00:55:08;;;;;;;2.67;1.83;;;;;;;19.02;59.30;102466.59;5035362;28;20033;-55
2023/09/30 00:57:34;;;;;;;2.22;1.67;;;;;;;19.01;59.03;102456.75;5035596;28;20470;-54
2023/09/30 01:00:01;;;;;;;2.90;1.70;;;;;;;19.02;59.42;102469.28;5034571;28;20467;-54
2023/09/30 01:02:26;;;;;;;3.50;1.95;;;;;;;19.01;59.24;102475.66;5035240;28;20482;-54
2023/09/30 01:04:52;;;;;;;2.83;1.70;;;;;;;19.01;59.31;102470.25;5035183;28;20068;-54
2023/09/30 01:07:17;;;;;;;2.85;1.80;;;;;;;19.00;59.38;102473.94;5034883;28;20499;-54
2023/09/30 01:09:43;;;;;;;2.88;1.98;;;;;;;19.00;59.22;102476.66;5034719;28;20033;-55
2023/09/30 01:12:09;;;;;;;1.98;1.58;;;;;;;19.00;59.07;102473.94;5034360;28;20079;-55
2023/09/30 01:14:35;;;;;;;2.92;2.00;;;;;;;19.00;59.13;102484.75;5049838;28;20033;-55
2023/09/30 01:17:01;;;;;;;2.22;1.52;;;;;;;19.00;59.21;102486.56;5034628;28;20076;-55
2023/09/30 01:19:27;;;;;;;3.20;2.08;;;;;;;19.00;59.32;102483.88;5034239;28;20076;-54
2023/09/30 01:22:03;;;;;;;2.05;1.60;;;;;;;18.99;59.36;102488.41;5034167;28;20067;-54
2023/09/30 01:24:29;;;;;;;2.83;1.80;;;;;;;18.99;59.33;102501.91;5031509;28;20079;-55
2023/09/30 01:26:55;;;;;;;2.30;1.75;;;;;;;18.99;59.36;102510.00;5033959;28;20037;-54
2023/09/30 01:29:22;;;;;;;2.80;2.05;;;;;;;18.98;58.99;102513.66;5036387;28;20079;-55
2023/09/30 01:31:47;;;;;;;3.05;1.90;;;;;;;18.97;59.06;102511.09;5034946;28;20065;-55
2023/09/30 01:34:13;;;;;;;2.28;1.63;;;;;;;18.96;59.09;102504.81;5035453;28;20061;-55
2023/09/30 01:36:39;;;;;;;2.20;2.00;;;;;;;18.97;59.22;102506.56;5035508;28;20037;-55
2023/09/30 01:39:04;;;;;;;1.95;1.50;;;;;;;18.96;59.39;102507.50;5035901;28;20104;-55
2023/09/30 01:41:29;;;;;;;2.92;2.00;;;;;;;18.96;59.27;102510.22;5035301;28;20032;-54
2023/09/30 01:43:55;;;;;;;3.83;2.20;;;;;;;18.96;59.06;102504.81;5034341;28;20029;-55
2023/09/30 01:46:22;;;;;;;3.10;1.75;;;;;;;18.94;59.10;102495.97;5033669;28;20036;-55
2023/09/30 01:48:48;;;;;;;3.65;1.83;;;;;;;18.95;59.13;102489.63;5034082;28;20045;-55
2023/09/30 01:51:13;;;;;;;2.60;1.60;;;;;;;18.94;58.82;102486.06;5033933;28;20506;-55
2023/09/30 01:53:39;;;;;;;2.50;1.73;;;;;;;18.95;58.94;102486.91;5033635;28;20082;-55
2023/09/30 01:56:05;;;;;;;2.17;1.77;;;;;;;18.94;59.17;102486.06;5034242;28;20041;-55
2023/09/30 01:58:30;;;;;;;3.10;1.70;;;;;;;18.93;59.27;102492.41;5033848;28;20036;-55
2023/09/30 02:01:04;;;;;;;3.25;2.00;;;;;;;18.93;59.31;102489.72;5033464;28;20083;-55
2023/09/30 02:03:30;;;;;;;2.13;1.63;;;;;;;18.93;59.01;102489.72;5030103;28;20052;-55
2023/09/30 02:05:58;;;;;;;2.95;1.85;;;;;;;18.93;58.96;102480.78;5033283;28;20061;-55
2023/09/30 02:08:24;;;;;;;1.98;1.63;;;;;;;18.92;59.02;102482.63;5033074;28;20041;-55
2023/09/30 02:10:51;;;;;;;4.07;1.88;;;;;;;18.93;58.89;102486.16;5034164;28;20037;-55
2023/09/30 02:13:17;;;;;;;2.35;1.60;;;;;;;18.93;58.92;102494.25;5034450;28;20040;-55
2023/09/30 02:15:43;;;;;;;2.58;1.85;;;;;;;18.91;58.90;102499.78;5034032;28;20045;-55
2023/09/30 02:18:09;;;;;;;3.25;1.98;;;;;;;18.91;59.03;102504.31;5033975;28;20068;-55
2023/09/30 02:20:39;;;;;;;2.72;1.58;;;;;;;18.90;58.86;102506.13;5034567;28;20372;-55
2023/09/30 02:23:10;;;;;;;3.33;2.03;;;;;;;18.91;58.83;102507.88;5035117;28;20420;-55
2023/09/30 02:25:36;;;;;;;2.13;1.88;;;;;;;18.91;58.94;102507.00;5034992;28;20039;-55
2023/09/30 02:28:02;;;;;;;2.83;1.85;;;;;;;18.91;58.64;102501.63;5034592;28;20120;-55
2023/09/30 02:30:27;;;;;;;3.80;1.73;;;;;;;18.91;58.52;102496.22;5033607;28;20539;-55
2023/09/30 02:32:53;;;;;;;3.38;1.75;;;;;;;18.90;58.81;102486.38;5048430;28;20033;-55
2023/09/30 02:35:20;;;;;;;2.47;1.63;;;;;;;18.90;58.95;102489.06;5033093;28;20136;-55
2023/09/30 02:37:45;;;;;;;4.22;1.95;;;;;;;18.89;58.82;102501.72;5026491;28;20087;-54
2023/09/30 02:40:10;;;;;;;2.97;1.63;;;;;;;18.89;58.96;102503.56;5032680;28;20033;-55
2023/09/30 02:42:40;;;;;;;2.47;1.70;;;;;;;18.89;59.06;102514.38;5033259;28;20025;-55
2023/09/30 02:45:07;;;;;;;2.80;1.70;;;;;;;18.88;59.00;102499.13;5033162;28;20042;-55
2023/09/30 02:47:34;;;;;;;3.08;2.10;;;;;;;18.88;58.92;102488.34;5032092;28;20059;-55
2023/09/30 02:50:00;;;;;;;3.03;2.00;;;;;;;18.88;58.67;102491.03;5032346;28;20045;-55
2023/09/30 02:52:25;;;;;;;2.25;1.90;;;;;;;18.87;58.55;102489.31;5032454;28;20040;-55
2023/09/30 02:54:51;;;;;;;3.00;1.80;;;;;;;18.88;58.63;102485.63;5033422;28;20439;-55
2023/09/30 02:57:17;;;;;;;2.88;1.50;;;;;;;18.87;58.93;102490.19;5033440;28;20041;-55
2023/09/30 02:59:44;;;;;;;1.98;1.60;;;;;;;18.86;58.94;102487.59;5029847;28;20041;-55
2023/09/30 03:02:11;;;;;;;4.20;2.17;;;;;;;18.86;58.64;102482.19;5033473;28;20065;-55
2023/09/30 03:04:36;;;;;;;2.08;1.55;;;;;;;18.85;58.64;102481.34;5033901;28;20128;-55
2023/09/30 03:07:02;;;;;;;3.38;1.67;;;;;;;18.85;58.90;102486.72;5032978;28;20546;-56
2023/09/30 03:09:27;;;;;;;3.05;2.00;;;;;;;18.85;58.47;102493.94;5032914;28;20041;-55
2023/09/30 03:11:55;;;;;;;2.88;1.23;;;;;;;18.85;58.86;102502.94;5032788;28;20030;-55
2023/09/30 03:14:21;;;;;;;1.60;1.50;;;;;;;18.86;58.57;102509.19;5033385;28;20022;-55
2023/09/30 03:16:47;;;;;;;1.92;1.70;;;;;;;18.84;58.80;102493.09;5033170;28;20064;-55
2023/09/30 03:19:16;;;;;;;3.15;1.80;;;;;;;18.84;58.45;102505.72;5032519;28;20033;-55
2023/09/30 03:21:42;;;;;;;4.13;1.80;;;;;;;18.84;58.72;102500.34;5032656;28;20021;-55
2023/09/30 03:24:08;;;;;;;3.20;1.73;;;;;;;18.84;58.46;102493.09;5032829;28;20441;-55
2023/09/30 03:26:33;;;;;;;1.65;1.42;;;;;;;18.83;58.47;102477.88;5032386;28;20037;-56
2023/09/30 03:28:59;;;;;;;2.20;1.50;;;;;;;18.83;58.39;102479.69;5032133;28;20620;-55
2023/09/30 03:31:25;;;;;;;2.90;1.60;;;;;;;18.84;58.63;102473.34;5033427;28;20037;-55
2023/09/30 03:33:53;;;;;;;3.22;1.70;;;;;;;18.83;58.13;102471.59;5033475;28;20083;-55
2023/09/30 03:36:24;;;;;;;1.95;1.40;;;;;;;18.82;58.41;102469.91;5032990;28;20079;-55
2023/09/30 03:38:54;;;;;;;2.40;1.67;;;;;;;18.82;58.59;102470.75;5029823;28;20044;-55
2023/09/30 03:41:19;;;;;;;2.63;1.77;;;;;;;18.83;58.34;102477.00;5032780;28;20033;-55
2023/09/30 03:43:44;;;;;;;1.77;1.55;;;;;;;18.82;58.50;102480.69;5032900;28;20022;-55
2023/09/30 03:46:11;;;;;;;2.28;1.67;;;;;;;18.82;58.59;102480.69;5032739;28;20037;-55
2023/09/30 03:48:39;;;;;;;2.00;1.48;;;;;;;18.81;58.36;102473.56;5033186;28;20041;-55
2023/09/30 03:51:14;;;;;;;2.05;1.48;;;;;;;18.81;58.51;102481.66;5032457;28;20044;-55
2023/09/30 03:53:44;;;;;;;2.78;2.08;;;;;;;18.81;58.87;102474.44;5031859;28;20030;-55
2023/09/30 03:56:13;;;;;;;2.63;1.70;;;;;;;18.81;58.29;102478.94;5030991;28;20387;-55
2023/09/30 03:58:41;;;;;;;1.60;1.50;;;;;;;18.80;58.47;102472.69;5033521;28;20040;-55
2023/09/30 04:01:06;;;;;;;2.05;1.42;;;;;;;18.80;58.60;102477.22;5029190;28;20070;-55
2023/09/30 04:03:39;;;;;;;1.50;1.40;;;;;;;18.79;58.61;102475.47;5033678;28;20103;-55
2023/09/30 04:06:05;;;;;;;2.00;1.52;;;;;;;18.79;58.32;102479.06;5033391;28;20048;-55
2023/09/30 04:08:33;;;;;;;2.83;1.92;;;;;;;18.79;58.46;102480.88;5031673;28;20418;-55
2023/09/30 04:10:59;;;;;;;2.28;1.80;;;;;;;18.79;58.10;102475.47;5034809;28;20038;-55
2023/09/30 04:13:24;;;;;;;1.92;1.50;;;;;;;18.79;58.15;102475.47;5036511;28;20053;-55
2023/09/30 04:15:50;;;;;;;1.83;1.40;;;;;;;18.78;58.17;102484.56;5036194;28;20119;-55
2023/09/30 04:18:16;;;;;;;2.33;1.63;;;;;;;18.77;58.39;102499.88;5036569;28;20065;-55
2023/09/30 04:20:41;;;;;;;2.13;1.52;;;;;;;18.76;58.49;102490.91;5036386;28;20404;-55
2023/09/30 04:23:09;;;;;;;1.98;1.40;;;;;;;18.78;58.44;102468.38;5036821;28;20419;-55
2023/09/30 04:25:35;;;;;;;2.17;1.52;;;;;;;18.76;58.24;102482.81;5035856;28;20048;-55
2023/09/30 04:28:01;;;;;;;1.77;1.40;;;;;;;18.76;58.31;102473.88;5035783;28;20037;-55
2023/09/30 04:30:27;;;;;;;2.42;1.50;;;;;;;18.75;58.33;102477.53;5035750;28;20040;-55
2023/09/30 04:32:53;;;;;;;2.45;1.63;;;;;;;18.75;58.22;102489.22;5035760;28;20037;-55
2023/09/30 04:35:18;;;;;;;2.13;1.27;;;;;;;18.75;58.46;102482.94;5035708;28;20502;-55
2023/09/30 04:37:43;;;;;;;2.50;1.60;;;;;;;18.75;58.38;102491.91;5035395;28;20537;-55
2023/09/30 04:40:15;;;;;;;1.92;1.50;;;;;;;18.74;58.12;102489.31;5038531;28;20047;-55
2023/09/30 04:42:44;;;;;;;2.45;1.55;;;;;;;18.75;58.28;102496.41;5034199;28;20399;-55
2023/09/30 04:45:10;;;;;;;2.35;1.33;;;;;;;18.74;58.49;102487.47;5036194;28;20029;-55
2023/09/30 04:47:37;;;;;;;2.35;1.58;;;;;;;18.74;58.32;102495.56;5034765;28;20475;-55
2023/09/30 04:50:07;;;;;;;2.25;1.70;;;;;;;18.73;58.12;102507.34;5034631;28;20446;-55
2023/09/30 04:52:32;;;;;;;2.22;1.45;;;;;;;18.73;58.02;102503.75;5034779;28;20824;-55
2023/09/30 04:54:59;;;;;;;2.08;1.52;;;;;;;18.74;58.36;102510.91;5035802;28;20029;-55
2023/09/30 04:57:25;;;;;;;1.30;1.20;;;;;;;18.73;58.23;102510.03;5034507;28;20396;-55
2023/09/30 04:59:51;;;;;;;2.72;1.50;;;;;;;18.73;58.32;102510.03;5035477;28;20029;-55
2023/09/30 05:02:16;;;;;;;1.55;1.40;;;;;;;18.73;58.26;102509.16;5035364;28;20040;-55
2023/09/30 05:04:42;;;;;;;2.63;1.73;;;;;;;18.72;58.20;102502.91;5035787;28;20436;-55
2023/09/30 05:07:08;;;;;;;1.95;1.52;;;;;;;18.72;58.07;102512.84;5035050;28;20037;-55
2023/09/30 05:09:33;;;;;;;1.95;1.67;;;;;;;18.72;58.29;102519.09;5035298;28;20041;-55
2023/09/30 05:11:59;;;;;;;1.52;1.40;;;;;;;18.72;58.27;102520.94;5034589;28;20391;-55
2023/09/30 05:14:24;;;;;;;2.03;1.65;;;;;;;18.71;57.99;102516.50;5034792;28;20044;-55
2023/09/30 05:16:49;;;;;;;1.92;1.30;;;;;;;18.71;57.79;102517.34;5034409;28;20045;-55
2023/09/30 05:19:15;;;;;;;3.75;1.75;;;;;;;18.71;57.93;102522.75;5034560;28;20041;-55
2023/09/30 05:21:40;;;;;;;2.08;1.73;;;;;;;18.71;57.86;102520.06;5033919;28;20029;-55
2023/09/30 05:24:06;;;;;;;2.40;1.90;;;;;;;18.70;58.16;102521.03;5034143;28;20030;-55
2023/09/30 05:26:32;;;;;;;2.08;1.77;;;;;;;18.70;57.98;102515.66;5032773;28;20037;-55
2023/09/30 05:28:59;;;;;;;1.73;1.60;;;;;;;18.69;57.86;102519.31;5033983;28;20029;-55
2023/09/30 05:31:25;;;;;;;1.95;1.70;;;;;;;18.69;58.08;102513.91;5033929;28;20038;-55
2023/09/30 05:33:50;;;;;;;2.45;1.60;;;;;;;18.68;57.83;102520.28;5035488;28;20041;-55
2023/09/30 05:36:15;;;;;;;1.90;1.50;;;;;;;18.68;57.97;102517.59;5035711;28;20029;-55
2023/09/30 05:38:41;;;;;;;2.45;1.73;;;;;;;18.69;57.98;102527.41;5034804;28;20154;-55
2023/09/30 05:41:07;;;;;;;3.33;1.90;;;;;;;18.68;57.92;102533.78;5037208;28;20481;-55
2023/09/30 05:43:33;;;;;;;2.42;1.70;;;;;;;18.67;57.94;102526.66;5034069;28;20021;-55
2023/09/30 05:45:58;;;;;;;3.60;1.63;;;;;;;18.69;57.90;102535.50;5034571;28;20159;-55
2023/09/30 05:48:24;;;;;;;2.17;1.52;;;;;;;18.67;57.66;102532.03;5034287;28;20029;-55
2023/09/30 05:50:49;;;;;;;1.98;1.55;;;;;;;18.68;57.72;102533.78;5033302;28;20037;-55
2023/09/30 05:53:15;;;;;;;2.33;1.50;;;;;;;18.67;57.66;102533.88;5033885;28;20498;-55
2023/09/30 05:55:42;;;;;;;2.42;1.63;;;;;;;18.67;57.81;102542.84;5034191;28;20376;-57
2023/09/30 05:58:13;;;;;;;2.75;2.10;;;;;;;18.66;57.93;102543.81;5036652;28;20055;-55
2023/09/30 06:00:41;;;;;;;1.50;1.20;;;;;;;18.67;58.04;102545.53;5030074;28;20514;-55
2023/09/30 06:03:08;;;;;;;2.60;1.80;;;;;;;18.67;57.89;102544.69;5033216;28;20030;-55
2023/09/30 06:05:33;;;;;;;1.98;1.65;;;;;;;18.66;57.83;102541.13;5033108;28;20037;-55
2023/09/30 06:08:02;;;;;;;2.03;1.40;;;;;;;18.65;57.83;102536.69;5034671;28;20025;-55
2023/09/30 06:10:28;;;;;;;1.70;1.55;;;;;;;18.64;57.88;102534.97;5034439;28;20406;-55
2023/09/30 06:12:54;;;;;;;1.88;1.67;;;;;;;18.65;57.66;102535.84;5034104;28;20029;-55
2023/09/30 06:15:21;;;;;;;1.85;1.60;;;;;;;18.64;57.63;102534.97;5033867;28;20084;-55
2023/09/30 06:17:51;;;;;;;1.90;1.40;;;;;;;18.63;58.01;102533.25;5034211;28;20464;-55
2023/09/30 06:20:17;;;;;;;1.88;1.63;;;;;;;18.64;57.62;102531.41;5034134;28;20028;-55
2023/09/30 06:22:47;;;;;;;2.53;1.52;;;;;;;18.63;57.65;102533.25;5034175;28;20037;-55
2023/09/30 06:25:16;;;;;;;2.47;1.60;;;;;;;18.63;57.78;102533.25;5037172;28;20402;-55
2023/09/30 06:27:47;;;;;;;1.90;1.42;;;;;;;18.62;57.56;102534.22;5033963;28;20442;-55
2023/09/30 06:30:15;;;;;;;2.15;1.92;;;;;;;18.63;57.54;102533.25;5032553;28;20026;-55
2023/09/30 06:32:41;;;;;;;1.40;1.30;;;;;;;18.62;57.51;102528.84;5029867;28;20032;-55
2023/09/30 06:35:10;;;;;;;2.22;1.70;;;;;;;18.63;57.64;102533.25;5032142;28;20466;-55
2023/09/30 06:37:37;;;;;;;1.95;1.48;;;;;;;18.63;57.60;102535.94;5029044;28;20068;-55
2023/09/30 06:40:04;;;;;;;2.58;1.85;;;;;;;18.63;57.67;102546.72;5032141;28;20491;-55
2023/09/30 06:42:30;;;;;;;2.28;1.45;;;;;;;18.64;57.58;102539.50;5032442;28;20491;-55
2023/09/30 06:44:56;;;;;;;1.70;1.42;;;;;;;18.63;57.46;102541.34;5033545;28;20056;-55
2023/09/30 06:47:21;;;;;;;2.85;1.77;;;;;;;18.63;57.52;102541.34;5033562;28;20067;-55
2023/09/30 06:49:47;;;;;;;2.05;1.40;;;;;;;18.64;57.47;102536.78;5031277;28;20041;-55
2023/09/30 06:52:13;;;;;;;1.88;1.42;;;;;;;18.64;57.72;102552.97;5033554;28;20042;-55
2023/09/30 06:54:38;;;;;;;1.65;1.55;;;;;;;18.64;57.35;102556.56;5035301;28;20029;-55
2023/09/30 06:57:04;;;;;;;1.90;1.40;;;;;;;18.63;57.60;102557.53;5033451;28;20037;-55
2023/09/30 06:59:30;;;;;;;1.70;1.52;;;;;;;18.63;57.59;102565.63;5032936;28;20057;-55
2023/09/30 07:01:55;;;;;;;2.60;1.63;;;;;;;18.64;57.66;102579.97;5032964;28;20091;-55
2023/09/30 07:04:21;;;;;;;1.63;1.40;;;;;;;18.64;57.41;102591.63;5029047;28;20026;-55
2023/09/30 07:06:47;;;;;;;1.40;1.13;;;;;;;18.68;57.39;102595.84;5033742;28;20120;-52
2023/09/30 07:09:12;;;;;;;4.80;1.77;;;;;;;18.70;58.82;102595.75;5031824;28;20039;-53
2023/09/30 07:11:38;;;;;;;3.58;1.85;;;;;;;18.76;58.92;102590.75;5032489;28;20045;-50
2023/09/30 07:14:03;;;;;;;4.35;1.85;;;;;;;18.79;58.83;102596.91;5032307;28;20042;-52
2023/09/30 07:16:29;;;;;;;3.50;1.73;;;;;;;18.80;59.38;102595.94;5030805;28;20104;-52
2023/09/30 07:18:55;;;;;;;3.15;2.15;;;;;;;18.81;59.64;102589.59;5031722;28;20037;-51
2023/09/30 07:21:20;;;;;;;3.55;2.28;;;;;;;18.79;59.78;102580.72;5031827;28;20033;-50
2023/09/30 07:23:47;;;;;;;5.60;2.15;;;;;;;18.78;59.99;102589.81;5032716;28;20025;-51
2023/09/30 07:26:14;;;;;;;2.95;2.13;;;;;;;18.76;59.85;102601.56;5025992;28;20040;-52
2023/09/30 07:28:39;;;;;;;4.93;2.60;;;;;;;18.75;60.21;102610.63;5035998;28;20111;-48
2023/09/30 07:31:05;;;;;;;6.18;2.67;;;;;;;18.76;60.69;102623.13;5034043;28;20053;-52
2023/09/30 07:33:31;;;;;;;4.63;2.58;;;;;;;18.76;60.93;102628.53;5033666;28;20037;-52
2023/09/30 07:35:56;;;;;;;5.40;2.60;;;;;;;18.77;61.10;102634.78;5033489;28;20052;-50
2023/09/30 07:38:22;;;;;;;7.38;3.28;;;;;;;18.79;61.40;102648.19;5033543;28;20049;-49
2023/09/30 07:40:48;;;;;;;11.00;2.80;;;;;;;18.79;61.13;102650.88;5031289;28;20033;-51
2023/09/30 07:43:14;;;;;;;9.35;2.70;;;;;;;18.79;61.37;102645.47;5032028;28;20041;-51
2023/09/30 07:45:40;;;;;;;5.88;2.50;;;;;;;18.79;61.25;102649.06;5033652;28;20171;-52
2023/09/30 07:48:09;;;;;;;9.25;3.30;;;;;;;18.80;61.58;102639.13;5034963;28;20364;-52
2023/09/30 07:50:35;;;;;;;6.40;3.08;;;;;;;18.79;61.45;102638.28;5036361;28;20364;-51
2023/09/30 07:53:00;;;;;;;7.00;2.97;;;;;;;18.79;61.43;102638.28;5035924;28;20040;-51
2023/09/30 07:55:26;;;;;;;5.28;2.95;;;;;;;18.81;61.72;102638.16;5035969;28;20108;-53
2023/09/30 07:57:51;;;;;;;5.28;2.70;;;;;;;18.80;61.53;102625.63;5035508;28;20033;-53
2023/09/30 08:00:17;;;;;;;8.85;3.15;;;;;;;18.80;61.84;102623.81;5034281;28;20079;-53
2023/09/30 08:02:43;;;;;;;6.53;2.58;;;;;;;18.80;61.94;102625.63;5033477;28;20888;-53
2023/09/30 08:05:10;;;;;;;5.95;3.08;;;;;;;18.79;62.08;102634.69;5034981;28;20067;-51
2023/09/30 08:07:35;;;;;;;8.32;3.28;;;;;;;18.81;62.19;102632.78;5034945;28;20116;-52
2023/09/30 08:10:06;;;;;;;8.02;3.47;;;;;;;18.81;62.45;102630.06;5034347;28;20109;-52
2023/09/30 08:12:32;;;;;;;10.67;3.30;;;;;;;18.82;62.90;102629.13;5034587;28;20463;-53
2023/09/30 08:14:57;;;;;;;7.63;3.20;;;;;;;18.81;62.62;102614.78;5034180;28;20030;-53
2023/09/30 08:17:23;;;;;;;8.00;3.78;;;;;;;18.82;63.11;102619.19;5034301;28;20049;-53
2023/09/30 08:19:48;;;;;;;8.85;3.03;;;;;;;18.83;63.05;102617.34;5032087;28;20543;-53
2023/09/30 08:22:14;;;;;;;7.47;3.10;;;;;;;18.84;63.21;102624.47;5035236;28;20045;-51
2023/09/30 08:24:40;;;;;;;6.32;3.17;;;;;;;18.86;62.78;102603.63;5034131;28;20471;-54
2023/09/30 08:27:06;;;;;;;5.97;2.83;;;;;;;18.87;63.27;102608.06;5035284;28;20032;-53
2023/09/30 08:29:35;;;;;;;6.10;3.33;;;;;;;18.86;63.16;102611.72;5037851;28;20051;-52
2023/09/30 08:32:01;;;;;;;10.57;3.20;;;;;;;18.86;63.55;102607.19;5036089;28;20160;-53
2023/09/30 08:34:26;;;;;;;12.27;3.65;;;;;;;18.86;63.42;102606.34;5036039;28;20128;-54
2023/09/30 08:36:52;;;;;;;22.90;3.80;;;;;;;18.88;64.06;102607.09;5036260;28;20040;-54
2023/09/30 08:39:17;;;;;;;16.05;4.53;;;;;;;18.88;63.83;102607.09;5036920;28;20041;-53
2023/09/30 08:41:45;;;;;;;22.38;3.95;;;;;;;18.89;63.87;102598.03;5036343;28;20021;-53
2023/09/30 08:44:11;;;;;;;31.27;5.22;;;;;;;18.90;63.81;102594.34;5036297;28;20025;-53
2023/09/30 08:46:37;;;;;;;26.40;4.32;;;;;;;18.91;63.80;102604.19;5035794;28;20028;-53
2023/09/30 08:49:04;;;;;;;21.88;4.43;;;;;;;18.91;63.85;102601.47;5035324;28;20045;-53
2023/09/30 08:51:30;;;;;;;18.63;4.55;;;;;;;18.92;63.77;102600.50;5035436;28;20033;-54
2023/09/30 08:53:57;;;;;;;24.75;4.78;;;;;;;18.92;63.71;102595.97;5034738;28;20069;-53
2023/09/30 08:56:28;;;;;;;18.95;5.13;;;;;;;18.92;63.73;102595.97;5036345;28;20033;-53
2023/09/30 08:58:58;;;;;;;17.00;3.88;;;;;;;18.93;63.83;102607.63;5035938;28;20040;-53
2023/09/30 09:01:34;;;;;;;25.20;4.15;;;;;;;18.95;63.62;102601.13;5034495;28;20041;-53
2023/09/30 09:04:00;;;;;;;20.00;4.50;;;;;;;18.94;63.93;102603.94;5032959;28;20379;-53
2023/09/30 09:06:26;;;;;;;17.33;3.50;;;;;;;18.94;63.91;102610.22;5035155;28;20029;-53
2023/09/30 09:08:52;;;;;;;22.65;3.65;;;;;;;18.94;64.02;102610.22;5035003;28;20041;-53
2023/09/30 09:11:18;;;;;;;18.42;3.50;;;;;;;18.95;64.32;102619.19;5034245;28;20037;-53
2023/09/30 09:13:49;;;;;;;20.33;3.95;;;;;;;18.96;63.95;102634.38;5035552;28;20424;-54
2023/09/30 09:16:17;;;;;;;14.52;2.95;;;;;;;18.97;64.31;102638.81;5035484;28;20060;-53
2023/09/30 09:18:43;;;;;;;23.00;3.88;;;;;;;18.97;64.04;102640.66;5035490;28;20029;-54
2023/09/30 09:21:27;;;;;;;17.02;3.70;;;;;;;18.97;64.12;102636.13;5035791;28;20394;-53
2023/09/30 09:23:54;;;;;;;16.58;2.97;;;;;;;18.98;64.31;102628.88;5032383;28;20033;-53
2023/09/30 09:26:26;;;;;;;13.68;3.42;;;;;;;19.00;64.08;102641.31;5033135;28;20100;-53
2023/09/30 09:28:57;;;;;;;13.02;3.17;;;;;;;19.00;63.76;102656.63;5033267;28;20456;-53
2023/09/30 09:31:23;;;;;;;11.25;4.05;;;;;;;19.01;63.75;102652.97;5030968;28;20073;-53
2023/09/30 09:33:50;;;;;;;16.13;3.47;;;;;;;19.00;63.84;102662.91;5031597;28;20041;-53
2023/09/30 09:36:16;;;;;;;14.65;3.60;;;;;;;19.01;63.85;102664.63;5032765;28;20061;-54
2023/09/30 09:38:54;;;;;;;13.13;3.17;;;;;;;19.01;64.08;102672.72;5033816;28;20056;-52
2023/09/30 09:41:23;;;;;;;9.25;2.92;;;;;;;19.02;63.95;102663.66;5032240;28;20087;-53
2023/09/30 09:43:50;;;;;;;19.42;3.25;;;;;;;19.04;63.88;102668.94;5031544;28;20040;-53
2023/09/30 09:46:17;;;;;;;13.00;3.65;;;;;;;19.02;63.64;102666.38;5033837;28;20041;-53
2023/09/30 09:48:46;;;;;;;14.18;3.53;;;;;;;19.03;63.99;102662.69;5033261;28;20025;-52
2023/09/30 09:51:12;;;;;;;12.10;3.40;;;;;;;19.04;64.15;102668.94;5035166;28;20150;-51
2023/09/30 09:53:40;;;;;;;13.13;3.47;;;;;;;19.05;64.33;102673.38;5032289;28;20060;-53
2023/09/30 09:56:09;;;;;;;10.13;3.88;;;;;;;19.05;64.06;102666.13;5035429;28;20392;-53
2023/09/30 09:58:38;;;;;;;16.08;4.15;;;;;;;19.06;63.74;102672.41;5035125;28;20025;-53
2023/09/30 10:01:05;;;;;;;8.23;3.35;;;;;;;19.06;64.24;102670.56;5033290;28;20112;-52
2023/09/30 10:03:32;;;;;;;8.05;3.30;;;;;;;19.07;64.03;102668.72;5030321;28;20017;-53
2023/09/30 10:05:59;;;;;;;10.80;3.22;;;;;;;19.08;64.04;102676.72;5032227;28;20044;-54
2023/09/30 10:08:36;;;;;;;11.18;3.22;;;;;;;19.07;63.76;102680.38;5033475;28;20036;-53
2023/09/30 10:11:01;;;;;;;10.32;2.92;;;;;;;19.08;64.04;102681.28;5032368;28;20029;-53
2023/09/30 10:14:03;;;;;;;11.73;3.40;;;;;;;19.11;63.65;102681.03;5032709;28;20037;-53
2023/09/30 10:16:37;;;;;;;11.95;3.35;;;;;;;19.09;63.91;102686.53;5031728;28;20067;-53
2023/09/30 10:19:12;;;;;;;8.20;3.25;;;;;;;19.09;63.89;102694.63;5031134;28;20493;-55
2023/09/30 10:21:39;;;;;;;10.70;3.97;;;;;;;19.10;63.86;102696.38;5032328;28;20391;-54
2023/09/30 10:24:22;;;;;;;9.93;3.58;;;;;;;19.11;63.67;102681.91;5032523;28;20024;-54
2023/09/30 10:27:31;;;;;;;8.80;3.40;;;;;;;19.13;63.65;102674.56;5030882;28;20036;-53
2023/09/30 10:30:08;;;;;;;6.65;3.40;;;;;;;19.12;63.82;102669.28;5030196;28;20042;-53
2023/09/30 10:32:56;;;;;;;7.57;3.70;;;;;;;19.14;63.64;102657.38;5030111;28;20033;-52
2023/09/30 10:35:31;;;;;;;10.27;3.53;;;;;;;19.13;63.88;102658.38;5031881;28;20048;-54
2023/09/30 10:38:24;;;;;;;5.78;3.15;;;;;;;19.15;63.58;102639.34;5030197;28;20033;-53
2023/09/30 10:40:51;;;;;;;11.70;3.72;;;;;;;19.13;64.23;102639.47;5030502;28;20025;-53
2023/09/30 10:43:32;;;;;;;7.15;3.65;;;;;;;19.16;63.54;102640.22;5032777;28;20053;-53
2023/09/30 10:45:58;;;;;;;6.95;3.72;;;;;;;19.15;63.87;102639.34;5031953;28;20129;-54
2023/09/30 10:48:36;;;;;;;11.55;3.72;;;;;;;19.14;63.94;102633.09;5032511;28;20120;-53
2023/09/30 10:51:15;;;;;;;6.88;3.53;;;;;;;19.16;64.02;102634.81;5031333;28;20064;-52
2023/09/30 10:53:46;;;;;;;9.32;4.15;;;;;;;19.16;64.12;102629.41;5031127;28;20069;-54
2023/09/30 10:56:12;;;;;;;8.73;4.03;;;;;;;19.18;63.97;102632.88;5030638;28;20436;-52
2023/09/30 10:58:41;;;;;;;8.75;3.88;;;;;;;19.17;63.80;102631.97;5033125;28;20108;-54
2023/09/30 11:01:07;;;;;;;7.78;3.70;;;;;;;19.18;63.96;102617.53;5029472;28;20564;-50
2023/09/30 11:03:33;;;;;;;8.85;3.72;;;;;;;19.18;63.96;102624.78;5033371;28;20038;-54
2023/09/30 11:05:59;;;;;;;7.50;3.95;;;;;;;19.19;64.04;102621.97;5031894;28;20387;-53
2023/09/30 11:08:29;;;;;;;9.07;4.25;;;;;;;19.19;63.83;102615.69;5033798;28;20032;-53
2023/09/30 11:10:56;;;;;;;11.80;3.93;;;;;;;19.19;63.76;102619.25;5029815;28;20495;-53
2023/09/30 11:13:22;;;;;;;6.63;3.80;;;;;;;19.20;63.54;102626.38;5032510;28;20383;-53
2023/09/30 11:15:47;;;;;;;7.55;3.72;;;;;;;19.20;63.80;102623.69;5032079;28;20132;-53
2023/09/30 11:18:16;;;;;;;8.52;3.70;;;;;;;19.20;63.83;102625.53;5032139;28;20534;-54
2023/09/30 11:20:43;;;;;;;11.70;3.97;;;;;;;19.22;63.75;102624.44;5035172;28;20037;-53
2023/09/30 11:23:08;;;;;;;8.63;3.72;;;;;;;19.21;63.92;102635.31;5037559;28;20036;-53
2023/09/30 11:25:39;;;;;;;7.90;3.58;;;;;;;19.21;63.68;102625.41;5037156;28;20029;-53